ETH883 HAAB-FSIA
Flight info
| Callsign | ETH883 |
|---|---|
| Flight time | N/A |
| Altitude | 37000 |
| Route | UTOPA MOGUD ROUTY ROUTY1D |
| Aircraft | B737/M-SDE2E3FGHIRWXY/LB1 |
Departure
| Time | N/A |
|---|---|
| Airport | Addis Ababa Bole International Airport (HAAB) |
Arrival
| Time | 2026-04-24 14:58 |
|---|---|
| Airport | Seychelles International Airport (FSIA) |
| Time | Latitude | Longitude | Altitude | Speed | Heading |
|---|---|---|---|---|---|
| 2026-04-24 13:56 | -0.80894 | 50.26237 | 36817 ft | 502 kts | 131° |
| 2026-04-24 13:56 | -0.83180 | 50.28876 | 36817 ft | 502 kts | 131° |
| 2026-04-24 13:56 | -0.87754 | 50.34156 | 36817 ft | 502 kts | 131° |
| 2026-04-24 13:57 | -0.92297 | 50.39401 | 36817 ft | 502 kts | 131° |
| 2026-04-24 13:57 | -0.96883 | 50.44697 | 36817 ft | 502 kts | 131° |
| 2026-04-24 13:58 | -1.01460 | 50.49981 | 36817 ft | 502 kts | 131° |
| 2026-04-24 13:58 | -1.06014 | 50.55240 | 36817 ft | 503 kts | 131° |
| 2026-04-24 13:59 | -1.10624 | 50.60563 | 36817 ft | 503 kts | 131° |
| 2026-04-24 13:59 | -1.15176 | 50.65820 | 36817 ft | 503 kts | 131° |
| 2026-04-24 14:00 | -1.19753 | 50.71106 | 36817 ft | 503 kts | 131° |
| 2026-04-24 14:00 | -1.24332 | 50.76394 | 36817 ft | 503 kts | 131° |
| 2026-04-24 14:01 | -1.28906 | 50.81677 | 36817 ft | 503 kts | 131° |
| 2026-04-24 14:01 | -1.33489 | 50.86972 | 36817 ft | 503 kts | 131° |
| 2026-04-24 14:02 | -1.38061 | 50.92254 | 36818 ft | 503 kts | 131° |
| 2026-04-24 14:02 | -1.42610 | 50.97510 | 36817 ft | 503 kts | 131° |
| 2026-04-24 14:03 | -1.46741 | 51.03145 | 36818 ft | 503 kts | 122° |
| 2026-04-24 14:03 | -1.50383 | 51.09131 | 36817 ft | 503 kts | 121° |
| 2026-04-24 14:04 | -1.54020 | 51.15127 | 36817 ft | 503 kts | 121° |
| 2026-04-24 14:04 | -1.57666 | 51.21123 | 36817 ft | 504 kts | 121° |
| 2026-04-24 14:05 | -1.61286 | 51.27069 | 36817 ft | 504 kts | 121° |
| 2026-04-24 14:05 | -1.64929 | 51.33048 | 36817 ft | 504 kts | 121° |
| 2026-04-24 14:06 | -1.68576 | 51.39031 | 36818 ft | 504 kts | 121° |
| 2026-04-24 14:06 | -1.72234 | 51.45031 | 36817 ft | 504 kts | 121° |
| 2026-04-24 14:07 | -1.75872 | 51.51001 | 36817 ft | 504 kts | 121° |
| 2026-04-24 14:07 | -1.79504 | 51.56958 | 36817 ft | 504 kts | 121° |
| 2026-04-24 14:08 | -1.83150 | 51.62941 | 36817 ft | 504 kts | 121° |
| 2026-04-24 14:08 | -1.86798 | 51.68926 | 36817 ft | 504 kts | 121° |
| 2026-04-24 14:09 | -1.90450 | 51.74920 | 36817 ft | 504 kts | 121° |
| 2026-04-24 14:09 | -1.94098 | 51.80907 | 36817 ft | 504 kts | 121° |
| 2026-04-24 14:10 | -1.97743 | 51.86889 | 36817 ft | 504 kts | 121° |
| 2026-04-24 14:10 | -2.01390 | 51.92876 | 36816 ft | 504 kts | 121° |
| 2026-04-24 14:11 | -2.05018 | 51.98832 | 36817 ft | 504 kts | 121° |
| 2026-04-24 14:12 | -2.10490 | 52.07816 | 36817 ft | 504 kts | 121° |
| 2026-04-24 14:12 | -2.14140 | 52.13810 | 36817 ft | 504 kts | 121° |
| 2026-04-24 14:13 | -2.17791 | 52.19807 | 36817 ft | 504 kts | 121° |
| 2026-04-24 14:13 | -2.21415 | 52.25760 | 36817 ft | 504 kts | 121° |
| 2026-04-24 14:14 | -2.25080 | 52.31780 | 36817 ft | 504 kts | 121° |
| 2026-04-24 14:14 | -2.30528 | 52.40731 | 36817 ft | 504 kts | 121° |
| 2026-04-24 14:15 | -2.34180 | 52.46733 | 36817 ft | 504 kts | 121° |
| 2026-04-24 14:15 | -2.37828 | 52.52728 | 36817 ft | 504 kts | 121° |
| 2026-04-24 14:16 | -2.41478 | 52.58728 | 36817 ft | 504 kts | 121° |
| 2026-04-24 14:17 | -2.46948 | 52.67720 | 36817 ft | 504 kts | 121° |
| 2026-04-24 14:17 | -2.52400 | 52.76687 | 36817 ft | 504 kts | 121° |
| 2026-04-24 14:18 | -2.53060 | 52.77772 | 36817 ft | 504 kts | 121° |
| 2026-04-24 14:18 | -2.56693 | 52.83748 | 36817 ft | 504 kts | 121° |
| 2026-04-24 14:19 | -2.60358 | 52.89729 | 36817 ft | 504 kts | 122° |
| 2026-04-24 14:19 | -2.64047 | 52.95726 | 36816 ft | 505 kts | 122° |
| 2026-04-24 14:20 | -2.67720 | 53.01701 | 36817 ft | 505 kts | 122° |
| 2026-04-24 14:20 | -2.71398 | 53.07687 | 36817 ft | 505 kts | 122° |
| 2026-04-24 14:21 | -2.75076 | 53.13675 | 36817 ft | 505 kts | 122° |
| 2026-04-24 14:21 | -2.78755 | 53.19662 | 36817 ft | 505 kts | 122° |
| 2026-04-24 14:22 | -2.82431 | 53.25644 | 36817 ft | 505 kts | 122° |
| 2026-04-24 14:23 | -2.87919 | 53.34580 | 36817 ft | 505 kts | 122° |
| 2026-04-24 14:23 | -2.91598 | 53.40573 | 36817 ft | 505 kts | 122° |
| 2026-04-24 14:24 | -2.95275 | 53.46562 | 36817 ft | 505 kts | 122° |
| 2026-04-24 14:24 | -2.98953 | 53.52556 | 36817 ft | 505 kts | 122° |
| 2026-04-24 14:25 | -3.02005 | 53.57529 | 36817 ft | 505 kts | 122° |
| 2026-04-24 14:25 | -3.05680 | 53.63519 | 36817 ft | 505 kts | 122° |
| 2026-04-24 14:26 | -3.09976 | 53.70521 | 36816 ft | 505 kts | 122° |
| 2026-04-24 14:26 | -3.13029 | 53.75499 | 36817 ft | 505 kts | 122° |
| 2026-04-24 14:27 | -3.16708 | 53.81498 | 36817 ft | 505 kts | 122° |
| 2026-04-24 14:27 | -3.20380 | 53.87486 | 36816 ft | 505 kts | 122° |
| 2026-04-24 14:28 | -3.24063 | 53.93494 | 36817 ft | 505 kts | 122° |
| 2026-04-24 14:28 | -3.27715 | 53.99452 | 36817 ft | 505 kts | 122° |
| 2026-04-24 14:29 | -3.31395 | 54.05456 | 36817 ft | 505 kts | 122° |
| 2026-04-24 14:29 | -3.35065 | 54.11445 | 36817 ft | 505 kts | 122° |
| 2026-04-24 14:30 | -3.38736 | 54.17438 | 36817 ft | 505 kts | 122° |
| 2026-04-24 14:30 | -3.42386 | 54.23397 | 36817 ft | 505 kts | 122° |
| 2026-04-24 14:31 | -3.46060 | 54.29397 | 36817 ft | 505 kts | 122° |
| 2026-04-24 14:31 | -3.49736 | 54.35400 | 36817 ft | 505 kts | 122° |
| 2026-04-24 14:32 | -3.53389 | 54.41368 | 36817 ft | 505 kts | 122° |
| 2026-04-24 14:32 | -3.57085 | 54.47405 | 36817 ft | 505 kts | 122° |
| 2026-04-24 14:33 | -3.60734 | 54.53368 | 36804 ft | 505 kts | 122° |
| 2026-04-24 14:33 | -3.62577 | 54.56380 | 36561 ft | 511 kts | 122° |
| 2026-04-24 14:33 | -3.64441 | 54.59426 | 36311 ft | 513 kts | 122° |
| 2026-04-24 14:33 | -3.66303 | 54.62471 | 36061 ft | 512 kts | 122° |
| 2026-04-24 14:34 | -3.68165 | 54.65515 | 35811 ft | 512 kts | 122° |
| 2026-04-24 14:34 | -3.70024 | 54.68554 | 35524 ft | 512 kts | 122° |
| 2026-04-24 14:34 | -3.71882 | 54.71592 | 35025 ft | 512 kts | 122° |
| 2026-04-24 14:34 | -3.73743 | 54.74635 | 34524 ft | 512 kts | 122° |
| 2026-04-24 14:35 | -3.75605 | 54.77681 | 34024 ft | 512 kts | 122° |
| 2026-04-24 14:35 | -3.77459 | 54.80714 | 33524 ft | 512 kts | 122° |
| 2026-04-24 14:35 | -3.79321 | 54.83759 | 33024 ft | 512 kts | 122° |
| 2026-04-24 14:35 | -3.81160 | 54.86768 | 32529 ft | 513 kts | 122° |
| 2026-04-24 14:36 | -3.83021 | 54.89812 | 32029 ft | 512 kts | 122° |
| 2026-04-24 14:36 | -3.84880 | 54.92855 | 31527 ft | 510 kts | 122° |
| 2026-04-24 14:36 | -3.86733 | 54.95887 | 31027 ft | 509 kts | 122° |
| 2026-04-24 14:36 | -3.88574 | 54.98899 | 30452 ft | 508 kts | 122° |
| 2026-04-24 14:37 | -3.90423 | 55.01926 | 29824 ft | 507 kts | 122° |
| 2026-04-24 14:37 | -3.92263 | 55.04924 | 29201 ft | 504 kts | 121° |
| 2026-04-24 14:37 | -3.94104 | 55.07894 | 28575 ft | 498 kts | 119° |
| 2026-04-24 14:37 | -3.95896 | 55.10848 | 27949 ft | 495 kts | 119° |
| 2026-04-24 14:38 | -3.97647 | 55.13730 | 27336 ft | 494 kts | 119° |
| 2026-04-24 14:38 | -3.99451 | 55.16694 | 26705 ft | 494 kts | 119° |
| 2026-04-24 14:38 | -4.01238 | 55.19625 | 26080 ft | 493 kts | 119° |
| 2026-04-24 14:38 | -4.03033 | 55.22568 | 25452 ft | 493 kts | 119° |
| 2026-04-24 14:39 | -4.04814 | 55.25486 | 24828 ft | 490 kts | 119° |
| 2026-04-24 14:39 | -4.06582 | 55.28386 | 24203 ft | 486 kts | 119° |
| 2026-04-24 14:39 | -4.08341 | 55.31269 | 23575 ft | 482 kts | 119° |
| 2026-04-24 14:39 | -4.10086 | 55.34130 | 22948 ft | 478 kts | 119° |
| 2026-04-24 14:40 | -4.11815 | 55.36965 | 22321 ft | 474 kts | 119° |
| 2026-04-24 14:40 | -4.13522 | 55.39764 | 21695 ft | 466 kts | 119° |
| 2026-04-24 14:40 | -4.15475 | 55.42315 | 21058 ft | 455 kts | 133° |
| 2026-04-24 14:40 | -4.17902 | 55.44190 | 20437 ft | 440 kts | 148° |
| 2026-04-24 14:41 | -4.20672 | 55.45358 | 19816 ft | 426 kts | 161° |
| 2026-04-24 14:41 | -4.23494 | 55.46123 | 19187 ft | 413 kts | 168° |
| 2026-04-24 14:41 | -4.26304 | 55.46458 | 18563 ft | 402 kts | 177° |
| 2026-04-24 14:41 | -4.29072 | 55.46451 | 17936 ft | 392 kts | 182° |
| 2026-04-24 14:42 | -4.31763 | 55.46370 | 17311 ft | 383 kts | 181° |
| 2026-04-24 14:42 | -4.34416 | 55.46342 | 16680 ft | 374 kts | 180° |
| 2026-04-24 14:42 | -4.36985 | 55.46331 | 16056 ft | 366 kts | 180° |
| 2026-04-24 14:42 | -4.39516 | 55.46329 | 15427 ft | 359 kts | 178° |
| 2026-04-24 14:43 | -4.41955 | 55.46695 | 14795 ft | 350 kts | 163° |
| 2026-04-24 14:43 | -4.44163 | 55.47576 | 14178 ft | 343 kts | 152° |
| 2026-04-24 14:43 | -4.46115 | 55.48903 | 13550 ft | 336 kts | 139° |
| 2026-04-24 14:43 | -4.47720 | 55.50567 | 12927 ft | 329 kts | 129° |
| 2026-04-24 14:44 | -4.49151 | 55.52339 | 12300 ft | 324 kts | 127° |
| 2026-04-24 14:44 | -4.50541 | 55.54089 | 11675 ft | 319 kts | 127° |
| 2026-04-24 14:44 | -4.51915 | 55.55814 | 11136 ft | 312 kts | 127° |
| 2026-04-24 14:44 | -4.53259 | 55.57496 | 10633 ft | 305 kts | 127° |
| 2026-04-24 14:45 | -4.54574 | 55.59136 | 10130 ft | 298 kts | 127° |
| 2026-04-24 14:45 | -4.55861 | 55.60739 | 9628 ft | 292 kts | 127° |
| 2026-04-24 14:45 | -4.57118 | 55.62304 | 9128 ft | 286 kts | 127° |
| 2026-04-24 14:45 | -4.58360 | 55.63850 | 8626 ft | 282 kts | 127° |
| 2026-04-24 14:46 | -4.59579 | 55.65368 | 8125 ft | 278 kts | 127° |
| 2026-04-24 14:46 | -4.60786 | 55.66872 | 7628 ft | 272 kts | 127° |
| 2026-04-24 14:46 | -4.61945 | 55.68315 | 7138 ft | 262 kts | 127° |
| 2026-04-24 14:46 | -4.63077 | 55.69723 | 6634 ft | 254 kts | 127° |
| 2026-04-24 14:47 | -4.64163 | 55.71076 | 6128 ft | 251 kts | 127° |
| 2026-04-24 14:47 | -4.65248 | 55.72430 | 5662 ft | 244 kts | 127° |
| 2026-04-24 14:47 | -4.66291 | 55.73730 | 5171 ft | 236 kts | 127° |
| 2026-04-24 14:47 | -4.67300 | 55.74991 | 4670 ft | 229 kts | 127° |
| 2026-04-24 14:48 | -4.68288 | 55.76229 | 4167 ft | 224 kts | 127° |
| 2026-04-24 14:48 | -4.69249 | 55.77439 | 3666 ft | 220 kts | 127° |
| 2026-04-24 14:48 | -4.70181 | 55.78618 | 3337 ft | 208 kts | 127° |
| 2026-04-24 14:48 | -4.71039 | 55.79703 | 3249 ft | 190 kts | 128° |
| 2026-04-24 14:49 | -4.72051 | 55.80446 | 3124 ft | 175 kts | 159° |
| 2026-04-24 14:49 | -4.73236 | 55.80504 | 3063 ft | 174 kts | 193° |
| 2026-04-24 14:49 | -4.74312 | 55.79931 | 3059 ft | 179 kts | 217° |
| 2026-04-24 14:49 | -4.75292 | 55.79126 | 3042 ft | 184 kts | 221° |
| 2026-04-24 14:50 | -4.76267 | 55.78285 | 2999 ft | 186 kts | 222° |
| 2026-04-24 14:50 | -4.77249 | 55.77440 | 2947 ft | 186 kts | 222° |
| 2026-04-24 14:50 | -4.78232 | 55.76598 | 2884 ft | 185 kts | 222° |
| 2026-04-24 14:50 | -4.79199 | 55.75770 | 2827 ft | 185 kts | 222° |
| 2026-04-24 14:51 | -4.80175 | 55.74935 | 2824 ft | 185 kts | 222° |
| 2026-04-24 14:51 | -4.81078 | 55.74023 | 2794 ft | 183 kts | 243° |
| 2026-04-24 14:51 | -4.81185 | 55.72804 | 2782 ft | 178 kts | 285° |
| 2026-04-24 14:51 | -4.80695 | 55.71671 | 2816 ft | 177 kts | 297° |
| 2026-04-24 14:52 | -4.80118 | 55.70585 | 2824 ft | 174 kts | 300° |
| 2026-04-24 14:52 | -4.79526 | 55.69578 | 2801 ft | 161 kts | 303° |
| 2026-04-24 14:52 | -4.78941 | 55.68666 | 2770 ft | 152 kts | 304° |
| 2026-04-24 14:52 | -4.78365 | 55.67806 | 2790 ft | 144 kts | 305° |
| 2026-04-24 14:53 | -4.77807 | 55.66990 | 2784 ft | 141 kts | 306° |
| 2026-04-24 14:53 | -4.77257 | 55.66194 | 2808 ft | 137 kts | 306° |
| 2026-04-24 14:53 | -4.76711 | 55.65407 | 2815 ft | 138 kts | 306° |
| 2026-04-24 14:53 | -4.76159 | 55.64617 | 2697 ft | 139 kts | 306° |
| 2026-04-24 14:54 | -4.75618 | 55.63841 | 2505 ft | 136 kts | 306° |
| 2026-04-24 14:54 | -4.75078 | 55.63069 | 2319 ft | 134 kts | 306° |
| 2026-04-24 14:54 | -4.74545 | 55.62307 | 2140 ft | 133 kts | 306° |
| 2026-04-24 14:54 | -4.74012 | 55.61545 | 1966 ft | 134 kts | 306° |
| 2026-04-24 14:55 | -4.73648 | 55.61025 | 1846 ft | 134 kts | 306° |
| 2026-04-24 14:55 | -4.72936 | 55.60008 | 1610 ft | 135 kts | 306° |
| 2026-04-24 14:55 | -4.72399 | 55.59241 | 1431 ft | 134 kts | 306° |
| 2026-04-24 14:55 | -4.71861 | 55.58472 | 1252 ft | 134 kts | 306° |
| 2026-04-24 14:56 | -4.71325 | 55.57707 | 1076 ft | 134 kts | 306° |
| 2026-04-24 14:56 | -4.70789 | 55.56941 | 897 ft | 134 kts | 306° |
| 2026-04-24 14:56 | -4.70257 | 55.56181 | 726 ft | 133 kts | 306° |
| 2026-04-24 14:56 | -4.69722 | 55.55421 | 567 ft | 133 kts | 306° |
| 2026-04-24 14:57 | -4.69189 | 55.54669 | 414 ft | 132 kts | 306° |
| 2026-04-24 14:57 | -4.68667 | 55.53931 | 235 ft | 130 kts | 306° |
| 2026-04-24 14:57 | -4.68159 | 55.53192 | 48 ft | 126 kts | 305° |
| 2026-04-24 14:57 | -4.67695 | 55.52532 | 18 ft | 92 kts | 302° |
| 2026-04-24 14:58 | -4.67461 | 55.52199 | 18 ft | 44 kts | 306° |
| 2026-04-24 14:58 | -4.67297 | 55.51963 | 18 ft | 38 kts | 305° |
| 2026-04-24 14:58 | -4.67157 | 55.51760 | 18 ft | 33 kts | 305° |
| 2026-04-24 14:58 | -4.67036 | 55.51587 | 18 ft | 28 kts | 305° |
| 2026-04-24 14:59 | -4.66935 | 55.51441 | 18 ft | 19 kts | 305° |
| 2026-04-24 14:59 | -4.66910 | 55.51362 | 18 ft | 9 kts | 236° |
| 2026-04-24 14:59 | -4.66949 | 55.51332 | 18 ft | 5 kts | 214° |
| 2026-04-24 14:59 | -4.66961 | 55.51324 | 18 ft | 0 kts | 214° |
| 2026-04-24 15:00 | -4.66961 | 55.51323 | 18 ft | 0 kts | 214° |
| 2026-04-24 15:00 | -4.66975 | 55.51314 | 18 ft | 5 kts | 214° |
| 2026-04-24 15:00 | -4.67014 | 55.51283 | 18 ft | 9 kts | 230° |
| 2026-04-24 15:00 | -4.67001 | 55.51215 | 18 ft | 12 kts | 318° |
| 2026-04-24 15:01 | -4.66928 | 55.51203 | 18 ft | 11 kts | 1° |
| 2026-04-24 15:01 | -4.66897 | 55.51174 | 18 ft | 6 kts | 244° |
| 2026-04-24 15:01 | -4.66909 | 55.51157 | 18 ft | 0 kts | 229° |
| 2026-04-24 15:01 | -4.66909 | 55.51156 | 18 ft | 1 kts | 229° |
| 2026-04-24 15:02 | -4.66932 | 55.51135 | 18 ft | 10 kts | 214° |
| 2026-04-24 15:02 | -4.66990 | 55.51096 | 18 ft | 4 kts | 214° |
| 2026-04-24 15:02 | -4.66991 | 55.51095 | 18 ft | 1 kts | 214° |
| 2026-04-24 15:02 | -4.66992 | 55.51094 | 18 ft | 0 kts | 214° |